sensor_id;sensor_type;location;lat;lon;timestamp;temperature;humidity
27896;DHT22;15241;48.374;10.876;2022-09-25T00:01:33;13.20;99.90
27896;DHT22;15241;48.374;10.876;2022-09-25T00:06:32;13.10;99.90
27896;DHT22;15241;48.374;10.876;2022-09-25T00:11:33;13.10;99.90
27896;DHT22;15241;48.374;10.876;2022-09-25T00:16:32;13.20;99.90
27896;DHT22;15241;48.374;10.876;2022-09-25T00:21:32;13.10;99.90
27896;DHT22;15241;48.374;10.876;2022-09-25T00:26:34;13.10;99.90
27896;DHT22;15241;48.374;10.876;2022-09-25T00:31:33;13.00;99.90
27896;DHT22;15241;48.374;10.876;2022-09-25T00:36:33;13.00;99.90
27896;DHT22;15241;48.374;10.876;2022-09-25T00:41:31;13.20;99.90
27896;DHT22;15241;48.374;10.876;2022-09-25T00:46:33;13.10;99.90
27896;DHT22;15241;48.374;10.876;2022-09-25T00:56:45;13.20;99.90
27896;DHT22;15241;48.374;10.876;2022-09-25T01:01:44;13.20;99.90
27896;DHT22;15241;48.374;10.876;2022-09-25T01:06:44;13.30;99.90
27896;DHT22;15241;48.374;10.876;2022-09-25T01:11:43;13.20;99.90
27896;DHT22;15241;48.374;10.876;2022-09-25T01:16:44;13.30;99.90
27896;DHT22;15241;48.374;10.876;2022-09-25T01:21:47;13.40;99.90
27896;DHT22;15241;48.374;10.876;2022-09-25T01:27:15;13.40;99.90
27896;DHT22;15241;48.374;10.876;2022-09-25T01:32:17;13.40;99.90
27896;DHT22;15241;48.374;10.876;2022-09-25T01:37:19;13.40;99.90
27896;DHT22;15241;48.374;10.876;2022-09-25T01:42:20;13.30;99.90
27896;DHT22;15241;48.374;10.876;2022-09-25T01:47:23;13.30;99.90
27896;DHT22;15241;48.374;10.876;2022-09-25T01:52:24;13.40;99.90
27896;DHT22;15241;48.374;10.876;2022-09-25T01:57:26;13.40;99.90
27896;DHT22;15241;48.374;10.876;2022-09-25T02:02:29;13.40;99.90
27896;DHT22;15241;48.374;10.876;2022-09-25T02:07:32;13.40;99.90
27896;DHT22;15241;48.374;10.876;2022-09-25T02:12:34;13.40;99.90
27896;DHT22;15241;48.374;10.876;2022-09-25T02:17:37;13.50;99.90
27896;DHT22;15241;48.374;10.876;2022-09-25T02:22:35;13.50;99.90
27896;DHT22;15241;48.374;10.876;2022-09-25T02:27:34;13.50;99.90
27896;DHT22;15241;48.374;10.876;2022-09-25T02:37:40;13.50;99.90
27896;DHT22;15241;48.374;10.876;2022-09-25T02:47:58;13.40;99.90
27896;DHT22;15241;48.374;10.876;2022-09-25T02:53:02;13.40;99.90
27896;DHT22;15241;48.374;10.876;2022-09-25T02:58:05;13.50;99.90
27896;DHT22;15241;48.374;10.876;2022-09-25T03:03:06;13.40;99.90
27896;DHT22;15241;48.374;10.876;2022-09-25T03:08:06;13.30;99.90
27896;DHT22;15241;48.374;10.876;2022-09-25T03:13:16;13.30;99.90
27896;DHT22;15241;48.374;10.876;2022-09-25T03:18:16;13.30;99.90
27896;DHT22;15241;48.374;10.876;2022-09-25T03:23:14;13.10;99.90
27896;DHT22;15241;48.374;10.876;2022-09-25T03:28:14;13.10;99.90
27896;DHT22;15241;48.374;10.876;2022-09-25T03:33:13;13.10;99.90
27896;DHT22;15241;48.374;10.876;2022-09-25T03:38:12;13.10;99.90
27896;DHT22;15241;48.374;10.876;2022-09-25T03:43:11;13.00;99.90
27896;DHT22;15241;48.374;10.876;2022-09-25T03:48:10;13.00;99.90
27896;DHT22;15241;48.374;10.876;2022-09-25T03:53:08;13.10;99.90
27896;DHT22;15241;48.374;10.876;2022-09-25T03:58:07;13.10;99.90
27896;DHT22;15241;48.374;10.876;2022-09-25T04:03:06;13.00;99.90
27896;DHT22;15241;48.374;10.876;2022-09-25T04:08:05;13.10;99.90
27896;DHT22;15241;48.374;10.876;2022-09-25T04:13:04;13.10;99.90
27896;DHT22;15241;48.374;10.876;2022-09-25T04:18:04;13.00;99.90
27896;DHT22;15241;48.374;10.876;2022-09-25T04:23:02;13.00;99.90
27896;DHT22;15241;48.374;10.876;2022-09-25T04:28:01;13.00;99.90
27896;DHT22;15241;48.374;10.876;2022-09-25T04:33:00;13.10;99.90
27896;DHT22;15241;48.374;10.876;2022-09-25T04:37:59;13.10;99.90
27896;DHT22;15241;48.374;10.876;2022-09-25T04:42:59;13.10;99.90
27896;DHT22;15241;48.374;10.876;2022-09-25T04:47:59;13.10;99.90
27896;DHT22;15241;48.374;10.876;2022-09-25T04:52:59;13.10;99.90
27896;DHT22;15241;48.374;10.876;2022-09-25T04:57:59;13.10;99.90
27896;DHT22;15241;48.374;10.876;2022-09-25T05:03:00;13.10;99.90
27896;DHT22;15241;48.374;10.876;2022-09-25T05:08:01;13.10;99.90
27896;DHT22;15241;48.374;10.876;2022-09-25T05:13:01;13.10;99.90
27896;DHT22;15241;48.374;10.876;2022-09-25T05:18:01;13.00;99.90
27896;DHT22;15241;48.374;10.876;2022-09-25T05:23:00;13.00;99.90
27896;DHT22;15241;48.374;10.876;2022-09-25T05:28:01;13.00;99.90
27896;DHT22;15241;48.374;10.876;2022-09-25T05:33:00;13.10;99.90
27896;DHT22;15241;48.374;10.876;2022-09-25T05:37:59;13.10;99.90
27896;DHT22;15241;48.374;10.876;2022-09-25T05:43:00;13.10;99.90
27896;DHT22;15241;48.374;10.876;2022-09-25T05:48:05;13.10;99.90
27896;DHT22;15241;48.374;10.876;2022-09-25T05:53:04;13.10;99.90
27896;DHT22;15241;48.374;10.876;2022-09-25T05:58:04;13.10;99.90
27896;DHT22;15241;48.374;10.876;2022-09-25T06:03:03;13.10;99.90
27896;DHT22;15241;48.374;10.876;2022-09-25T06:08:02;13.10;99.90
27896;DHT22;15241;48.374;10.876;2022-09-25T06:13:02;13.10;99.90
27896;DHT22;15241;48.374;10.876;2022-09-25T06:18:01;13.00;99.90
27896;DHT22;15241;48.374;10.876;2022-09-25T06:23:00;13.00;99.90
27896;DHT22;15241;48.374;10.876;2022-09-25T06:28:00;13.10;99.90
27896;DHT22;15241;48.374;10.876;2022-09-25T06:33:00;13.20;99.90
27896;DHT22;15241;48.374;10.876;2022-09-25T06:38:00;13.30;99.90
27896;DHT22;15241;48.374;10.876;2022-09-25T06:43:00;13.30;99.90
27896;DHT22;15241;48.374;10.876;2022-09-25T06:48:04;13.30;99.90
27896;DHT22;15241;48.374;10.876;2022-09-25T06:53:04;13.20;99.90
27896;DHT22;15241;48.374;10.876;2022-09-25T06:58:04;13.30;99.90
27896;DHT22;15241;48.374;10.876;2022-09-25T07:03:03;13.40;99.90
27896;DHT22;15241;48.374;10.876;2022-09-25T07:08:03;13.40;99.90
27896;DHT22;15241;48.374;10.876;2022-09-25T07:13:02;13.30;99.90
27896;DHT22;15241;48.374;10.876;2022-09-25T07:18:00;13.40;99.90
27896;DHT22;15241;48.374;10.876;2022-09-25T07:23:02;13.40;99.90
27896;DHT22;15241;48.374;10.876;2022-09-25T07:28:04;13.40;99.90
27896;DHT22;15241;48.374;10.876;2022-09-25T07:33:03;13.40;99.90
27896;DHT22;15241;48.374;10.876;2022-09-25T07:38:02;13.40;99.90
27896;DHT22;15241;48.374;10.876;2022-09-25T07:43:02;13.40;99.90
27896;DHT22;15241;48.374;10.876;2022-09-25T07:48:02;13.50;99.90
27896;DHT22;15241;48.374;10.876;2022-09-25T07:53:01;13.40;99.90
27896;DHT22;15241;48.374;10.876;2022-09-25T07:58:00;13.50;99.90
27896;DHT22;15241;48.374;10.876;2022-09-25T08:02:59;13.50;99.90
27896;DHT22;15241;48.374;10.876;2022-09-25T08:07:59;13.50;99.90
27896;DHT22;15241;48.374;10.876;2022-09-25T08:12:58;13.60;99.90
27896;DHT22;15241;48.374;10.876;2022-09-25T08:17:57;13.50;99.90
27896;DHT22;15241;48.374;10.876;2022-09-25T08:22:56;13.50;99.90
27896;DHT22;15241;48.374;10.876;2022-09-25T08:27:55;13.60;99.90
27896;DHT22;15241;48.374;10.876;2022-09-25T08:32:54;13.60;99.90
27896;DHT22;15241;48.374;10.876;2022-09-25T08:37:53;13.60;99.90
27896;DHT22;15241;48.374;10.876;2022-09-25T08:42:53;13.70;99.90
27896;DHT22;15241;48.374;10.876;2022-09-25T08:47:54;13.70;99.90
27896;DHT22;15241;48.374;10.876;2022-09-25T08:53:04;13.90;99.90
27896;DHT22;15241;48.374;10.876;2022-09-25T08:57:57;14.10;99.90
27896;DHT22;15241;48.374;10.876;2022-09-25T09:02:59;14.10;99.90
27896;DHT22;15241;48.374;10.876;2022-09-25T09:08:00;14.10;99.90
27896;DHT22;15241;48.374;10.876;2022-09-25T09:13:03;14.30;99.90
27896;DHT22;15241;48.374;10.876;2022-09-25T09:18:18;14.40;99.90
27896;DHT22;15241;48.374;10.876;2022-09-25T09:23:04;14.40;99.90
27896;DHT22;15241;48.374;10.876;2022-09-25T09:28:18;14.40;99.90
27896;DHT22;15241;48.374;10.876;2022-09-25T09:33:26;14.50;99.90
27896;DHT22;15241;48.374;10.876;2022-09-25T09:38:30;14.40;99.90
27896;DHT22;15241;48.374;10.876;2022-09-25T09:43:44;14.40;99.90
27896;DHT22;15241;48.374;10.876;2022-09-25T09:48:43;14.50;99.90
27896;DHT22;15241;48.374;10.876;2022-09-25T09:53:45;14.40;99.90
27896;DHT22;15241;48.374;10.876;2022-09-25T09:58:48;14.50;99.90
27896;DHT22;15241;48.374;10.876;2022-09-25T10:03:50;14.50;99.90
27896;DHT22;15241;48.374;10.876;2022-09-25T10:08:49;14.70;99.90
27896;DHT22;15241;48.374;10.876;2022-09-25T10:13:48;14.70;99.90
27896;DHT22;15241;48.374;10.876;2022-09-25T10:18:50;14.80;99.90
27896;DHT22;15241;48.374;10.876;2022-09-25T10:23:51;14.80;99.90
27896;DHT22;15241;48.374;10.876;2022-09-25T10:28:50;14.80;99.90
27896;DHT22;15241;48.374;10.876;2022-09-25T10:34:16;14.90;99.90
27896;DHT22;15241;48.374;10.876;2022-09-25T10:39:28;15.00;99.90
27896;DHT22;15241;48.374;10.876;2022-09-25T10:44:33;15.10;99.90
27896;DHT22;15241;48.374;10.876;2022-09-25T10:54:47;15.40;99.90
27896;DHT22;15241;48.374;10.876;2022-09-25T10:59:48;15.50;99.90
27896;DHT22;15241;48.374;10.876;2022-09-25T11:04:49;15.50;99.90
27896;DHT22;15241;48.374;10.876;2022-09-25T11:09:49;15.60;99.90
27896;DHT22;15241;48.374;10.876;2022-09-25T11:14:52;15.60;99.90
27896;DHT22;15241;48.374;10.876;2022-09-25T11:20:10;15.70;99.90
27896;DHT22;15241;48.374;10.876;2022-09-25T11:24:59;15.70;99.90
27896;DHT22;15241;48.374;10.876;2022-09-25T11:30:03;15.90;99.90
27896;DHT22;15241;48.374;10.876;2022-09-25T11:40:41;16.10;99.90
27896;DHT22;15241;48.374;10.876;2022-09-25T11:45:42;16.30;99.90
27896;DHT22;15241;48.374;10.876;2022-09-25T11:50:44;16.60;99.90
27896;DHT22;15241;48.374;10.876;2022-09-25T11:55:59;16.80;99.90
27896;DHT22;15241;48.374;10.876;2022-09-25T12:01:02;17.00;99.90
27896;DHT22;15241;48.374;10.876;2022-09-25T12:06:22;17.20;99.90
27896;DHT22;15241;48.374;10.876;2022-09-25T12:11:25;17.30;99.90
27896;DHT22;15241;48.374;10.876;2022-09-25T12:16:27;17.30;99.90
27896;DHT22;15241;48.374;10.876;2022-09-25T12:26:36;18.00;99.90
27896;DHT22;15241;48.374;10.876;2022-09-25T12:31:41;18.40;99.90
27896;DHT22;15241;48.374;10.876;2022-09-25T12:36:43;19.00;99.90
27896;DHT22;15241;48.374;10.876;2022-09-25T12:41:44;19.80;99.90
27896;DHT22;15241;48.374;10.876;2022-09-25T12:46:48;20.10;99.90
27896;DHT22;15241;48.374;10.876;2022-09-25T12:51:48;19.90;99.90
27896;DHT22;15241;48.374;10.876;2022-09-25T12:56:50;19.60;99.90
27896;DHT22;15241;48.374;10.876;2022-09-25T13:01:53;19.70;99.90
27896;DHT22;15241;48.374;10.876;2022-09-25T13:12:03;21.60;99.90
27896;DHT22;15241;48.374;10.876;2022-09-25T13:17:03;21.60;99.90
27896;DHT22;15241;48.374;10.876;2022-09-25T13:22:07;21.30;99.90
27896;DHT22;15241;48.374;10.876;2022-09-25T13:27:13;21.50;99.90
27896;DHT22;15241;48.374;10.876;2022-09-25T13:32:15;22.90;99.90
27896;DHT22;15241;48.374;10.876;2022-09-25T13:37:15;25.60;99.90
27896;DHT22;15241;48.374;10.876;2022-09-25T13:42:20;25.90;99.90
27896;DHT22;15241;48.374;10.876;2022-09-25T13:47:57;25.70;99.90
27896;DHT22;15241;48.374;10.876;2022-09-25T13:53:20;26.60;99.90
27896;DHT22;15241;48.374;10.876;2022-09-25T13:58:20;26.40;99.50
27896;DHT22;15241;48.374;10.876;2022-09-25T14:03:29;24.80;99.90
27896;DHT22;15241;48.374;10.876;2022-09-25T14:08:31;24.10;99.90
27896;DHT22;15241;48.374;10.876;2022-09-25T14:13:30;25.20;99.90
27896;DHT22;15241;48.374;10.876;2022-09-25T14:18:35;27.90;98.20
27896;DHT22;15241;48.374;10.876;2022-09-25T14:23:34;28.90;96.30
27896;DHT22;15241;48.374;10.876;2022-09-25T14:28:41;32.50;91.80
27896;DHT22;15241;48.374;10.876;2022-09-25T14:33:41;35.20;80.00
27896;DHT22;15241;48.374;10.876;2022-09-25T14:39:05;35.10;72.50
27896;DHT22;15241;48.374;10.876;2022-09-25T14:44:14;33.50;73.30
27896;DHT22;15241;48.374;10.876;2022-09-25T14:49:19;31.30;76.10
27896;DHT22;15241;48.374;10.876;2022-09-25T14:54:20;29.20;81.10
27896;DHT22;15241;48.374;10.876;2022-09-25T14:59:23;27.60;85.30
27896;DHT22;15241;48.374;10.876;2022-09-25T15:04:29;26.10;90.00
27896;DHT22;15241;48.374;10.876;2022-09-25T15:09:35;24.90;92.20
27896;DHT22;15241;48.374;10.876;2022-09-25T15:14:31;23.80;94.50
27896;DHT22;15241;48.374;10.876;2022-09-25T15:24:42;23.10;96.70
27896;DHT22;15241;48.374;10.876;2022-09-25T15:29:45;23.60;95.90
27896;DHT22;15241;48.374;10.876;2022-09-25T15:34:44;23.10;96.90
27896;DHT22;15241;48.374;10.876;2022-09-25T15:39:44;22.70;97.70
27896;DHT22;15241;48.374;10.876;2022-09-25T15:44:43;22.50;97.00
27896;DHT22;15241;48.374;10.876;2022-09-25T15:49:42;22.20;97.40
27896;DHT22;15241;48.374;10.876;2022-09-25T15:54:43;21.70;99.00
27896;DHT22;15241;48.374;10.876;2022-09-25T15:59:45;21.10;99.90
27896;DHT22;15241;48.374;10.876;2022-09-25T16:04:49;20.60;99.90
27896;DHT22;15241;48.374;10.876;2022-09-25T16:09:49;20.30;99.90
27896;DHT22;15241;48.374;10.876;2022-09-25T16:14:49;19.80;99.90
27896;DHT22;15241;48.374;10.876;2022-09-25T16:19:59;19.40;99.90
27896;DHT22;15241;48.374;10.876;2022-09-25T16:24:58;19.10;99.90
27896;DHT22;15241;48.374;10.876;2022-09-25T16:35:04;18.50;99.90
27896;DHT22;15241;48.374;10.876;2022-09-25T16:40:21;18.20;99.90
27896;DHT22;15241;48.374;10.876;2022-09-25T16:45:22;17.90;99.90
27896;DHT22;15241;48.374;10.876;2022-09-25T16:50:22;17.80;99.90
27896;DHT22;15241;48.374;10.876;2022-09-25T16:55:24;17.70;99.90
27896;DHT22;15241;48.374;10.876;2022-09-25T17:00:25;17.40;99.90
27896;DHT22;15241;48.374;10.876;2022-09-25T17:05:26;17.10;99.90
27896;DHT22;15241;48.374;10.876;2022-09-25T17:10:27;17.00;99.90
27896;DHT22;15241;48.374;10.876;2022-09-25T17:15:27;16.80;99.90
27896;DHT22;15241;48.374;10.876;2022-09-25T17:20:28;16.70;99.90
27896;DHT22;15241;48.374;10.876;2022-09-25T17:25:37;16.60;99.90
27896;DHT22;15241;48.374;10.876;2022-09-25T17:30:36;16.50;99.90
27896;DHT22;15241;48.374;10.876;2022-09-25T17:35:39;16.50;99.90
27896;DHT22;15241;48.374;10.876;2022-09-25T17:40:39;16.40;99.90
27896;DHT22;15241;48.374;10.876;2022-09-25T17:45:42;16.30;99.90
27896;DHT22;15241;48.374;10.876;2022-09-25T17:50:44;16.30;99.90
27896;DHT22;15241;48.374;10.876;2022-09-25T17:55:43;16.10;99.90
27896;DHT22;15241;48.374;10.876;2022-09-25T18:00:43;15.90;99.90
27896;DHT22;15241;48.374;10.876;2022-09-25T18:05:42;15.80;99.90
27896;DHT22;15241;48.374;10.876;2022-09-25T18:10:42;15.50;99.90
27896;DHT22;15241;48.374;10.876;2022-09-25T18:15:45;15.60;99.90
27896;DHT22;15241;48.374;10.876;2022-09-25T18:20:44;15.70;99.90
27896;DHT22;15241;48.374;10.876;2022-09-25T18:25:42;15.60;99.90
27896;DHT22;15241;48.374;10.876;2022-09-25T18:30:41;15.60;99.90
27896;DHT22;15241;48.374;10.876;2022-09-25T18:35:40;15.40;99.90
27896;DHT22;15241;48.374;10.876;2022-09-25T18:40:39;15.40;99.90
27896;DHT22;15241;48.374;10.876;2022-09-25T18:45:38;15.40;99.90
27896;DHT22;15241;48.374;10.876;2022-09-25T18:50:38;15.20;99.90
27896;DHT22;15241;48.374;10.876;2022-09-25T18:55:38;15.20;99.90
27896;DHT22;15241;48.374;10.876;2022-09-25T19:00:37;15.30;99.90
27896;DHT22;15241;48.374;10.876;2022-09-25T19:05:36;15.30;99.90
27896;DHT22;15241;48.374;10.876;2022-09-25T19:10:35;15.20;99.90
27896;DHT22;15241;48.374;10.876;2022-09-25T19:15:34;15.10;99.90
27896;DHT22;15241;48.374;10.876;2022-09-25T19:20:33;15.10;99.90
27896;DHT22;15241;48.374;10.876;2022-09-25T19:25:32;15.10;99.90
27896;DHT22;15241;48.374;10.876;2022-09-25T19:30:31;15.10;99.90
27896;DHT22;15241;48.374;10.876;2022-09-25T19:35:30;15.00;99.90
27896;DHT22;15241;48.374;10.876;2022-09-25T19:40:29;14.90;99.90
27896;DHT22;15241;48.374;10.876;2022-09-25T19:45:28;14.90;99.90
27896;DHT22;15241;48.374;10.876;2022-09-25T19:50:27;14.80;99.90
27896;DHT22;15241;48.374;10.876;2022-09-25T19:55:26;14.70;99.90
27896;DHT22;15241;48.374;10.876;2022-09-25T20:00:24;14.70;99.90
27896;DHT22;15241;48.374;10.876;2022-09-25T20:05:24;14.70;99.90
27896;DHT22;15241;48.374;10.876;2022-09-25T20:10:23;14.40;99.90
27896;DHT22;15241;48.374;10.876;2022-09-25T20:15:22;14.40;99.90
27896;DHT22;15241;48.374;10.876;2022-09-25T20:20:20;14.40;99.90
27896;DHT22;15241;48.374;10.876;2022-09-25T20:25:19;14.40;99.90
27896;DHT22;15241;48.374;10.876;2022-09-25T20:30:19;14.40;99.90
27896;DHT22;15241;48.374;10.876;2022-09-25T20:35:18;14.40;99.90
27896;DHT22;15241;48.374;10.876;2022-09-25T20:40:17;14.20;99.90
27896;DHT22;15241;48.374;10.876;2022-09-25T20:45:16;14.30;99.90
27896;DHT22;15241;48.374;10.876;2022-09-25T20:50:15;14.30;99.90
27896;DHT22;15241;48.374;10.876;2022-09-25T20:55:14;14.30;99.90
27896;DHT22;15241;48.374;10.876;2022-09-25T21:00:15;14.20;99.90
27896;DHT22;15241;48.374;10.876;2022-09-25T21:05:14;14.20;99.90
27896;DHT22;15241;48.374;10.876;2022-09-25T21:10:13;14.10;99.90
27896;DHT22;15241;48.374;10.876;2022-09-25T21:15:11;14.10;99.90
27896;DHT22;15241;48.374;10.876;2022-09-25T21:20:10;14.10;99.90
27896;DHT22;15241;48.374;10.876;2022-09-25T21:25:10;14.10;99.90
27896;DHT22;15241;48.374;10.876;2022-09-25T21:30:10;14.00;99.90
27896;DHT22;15241;48.374;10.876;2022-09-25T21:35:10;14.10;99.90
27896;DHT22;15241;48.374;10.876;2022-09-25T21:40:11;14.10;99.90
27896;DHT22;15241;48.374;10.876;2022-09-25T21:45:11;14.20;99.90
27896;DHT22;15241;48.374;10.876;2022-09-25T21:50:10;14.20;99.90
27896;DHT22;15241;48.374;10.876;2022-09-25T21:55:10;14.10;99.90
27896;DHT22;15241;48.374;10.876;2022-09-25T22:00:11;14.00;99.90
27896;DHT22;15241;48.374;10.876;2022-09-25T22:05:10;14.00;99.90
27896;DHT22;15241;48.374;10.876;2022-09-25T22:10:10;13.90;99.90
27896;DHT22;15241;48.374;10.876;2022-09-25T22:15:10;13.80;99.90
27896;DHT22;15241;48.374;10.876;2022-09-25T22:20:09;13.80;99.90
27896;DHT22;15241;48.374;10.876;2022-09-25T22:25:09;13.80;99.90
27896;DHT22;15241;48.374;10.876;2022-09-25T22:30:10;13.80;99.90
27896;DHT22;15241;48.374;10.876;2022-09-25T22:35:10;13.70;99.90
27896;DHT22;15241;48.374;10.876;2022-09-25T22:40:09;13.70;99.90
27896;DHT22;15241;48.374;10.876;2022-09-25T22:45:09;13.70;99.90
27896;DHT22;15241;48.374;10.876;2022-09-25T22:50:09;13.60;99.90
27896;DHT22;15241;48.374;10.876;2022-09-25T22:55:09;13.50;99.90
27896;DHT22;15241;48.374;10.876;2022-09-25T23:00:13;13.60;99.90
27896;DHT22;15241;48.374;10.876;2022-09-25T23:05:11;13.60;99.90
27896;DHT22;15241;48.374;10.876;2022-09-25T23:10:10;13.60;99.90
27896;DHT22;15241;48.374;10.876;2022-09-25T23:15:10;13.50;99.90
27896;DHT22;15241;48.374;10.876;2022-09-25T23:20:09;13.60;99.90
27896;DHT22;15241;48.374;10.876;2022-09-25T23:25:09;13.40;99.90
27896;DHT22;15241;48.374;10.876;2022-09-25T23:30:10;13.30;99.90
27896;DHT22;15241;48.374;10.876;2022-09-25T23:35:09;13.40;99.90
27896;DHT22;15241;48.374;10.876;2022-09-25T23:40:09;13.30;99.90
27896;DHT22;15241;48.374;10.876;2022-09-25T23:45:10;13.40;99.90
27896;DHT22;15241;48.374;10.876;2022-09-25T23:50:10;13.40;99.90
27896;DHT22;15241;48.374;10.876;2022-09-25T23:55:09;13.40;99.90
